Agency, MO

7:11 AM CDT on September 22, 2014 (GMT -0500)
Wyatt Park | Change Station
CLOSE
Current Station
Personal Weather Station
Location: St Joseph, MO
Elevation: 1000 ft
Nearby Weather Stations

Elev 1000 ft 39.75 °N, 94.83 °W | Updated 11 seconds ago

Clear
Clear
49.0 °F
Feels Like 49 °F
N
0.0
Wind Variable Wind from NW
Gusts 0.0 mph

Today
High -- | Low -- °F
--% Chance of Precip.
Yesterday
High -- | Low -- °F
Precip. -- in
7:06 AM 7:15 PM
Waning Crescent, 3% visible
Pressure 30.32 in
Visibility 1.8 miles
Clouds Few 200 ft
Windchill 49 °F
Dew Point 47 °F
Humidity 93%
Rainfall 0.00 in
Snow Depth Not available.
UV 0 out of 12
Pollen 4.60 out of 12
Air Quality Not available.
Flu Activity Not available.
SPECI KSTJ 221207Z 29003KT 1 3/4SM R35/1800VP6000FT BR FEW002 06/06 A3032 RMK AO2 VIS 1/4V5 T00560056 $

More Conditions Fewer Conditions

Pressure 30.32 in
Visibility 1.8 miles
Clouds Few 200 ft
Windchill 49 °F
Dew Point 47 °F
Humidity 93%
Rainfall 0.00 in
Snow Depth Not available.
UV 0 out of 12
Pollen 4.60 out of 12
Air Quality Not available.
Flu Activity Not available.
SPECI KSTJ 221207Z 29003KT 1 3/4SM R35/1800VP6000FT BR FEW002 06/06 A3032 RMK AO2 VIS 1/4V5 T00560056 $

More Conditions Fewer Conditions

10-Day Weather Forecast

Almanac

Astronomy

Sep. 22, 2014 Rise Set
Actual Time 7:06 AM CDT 7:15 PM CDT
Civil Twilight 6:39 AM CDT 7:42 PM CDT
Nautical Twilight 6:07 AM CDT 8:14 PM CDT
Astronomical Twilight 5:35 AM CDT 8:46 PM CDT
Moon 5:36 AM CDT 6:23 PM CDT
Length of Visible Light 13h 03m
Length of Day
12h 09m
Tomorrow will be 2m 36s shorter.
Waning Crescent, 3% of the Moon is Illuminated
Today
Waning Crescent
Sep 24
New
Oct 1
First Quarter
Oct 8
Full
Oct 15
Last Quarter

Today's Extremes

State Highs State Lows

Community

WunderPhotos

Upload Photos

1,755,417 photos uploaded!

WunderBlogs® & News

Nearby

Snow Depth

Station Depth Elevation
No new snow has been reported.

Earthquake Activity

City Distance Mag. Time & Date
No recent earthquake activity has been reported nearby.
Minimum magnitude displayed is 2.5.

Coastal Water Temperatures

Place Temperature
No Stations Reporting

Nearby Weather Stations